Time;durP1;ratioP1;P1;durP2;ratioP2;P2;SDS_P1;SDS_P2;PMS_P1;PMS_P2;Temp;Humidity;BMP_temperature;BMP_pressure;BME280_temperature;BME280_humidity;BME280_pressure;Samples;Min_cycle;Max_cycle;Signal;HPM_P1;HPM_P2
2023/07/31 00:00:48;;;;;;;6.97;2.00;;;;;;;26.76;100.00;100192.47;20880740;28;20060;-74
2023/07/31 00:11:12;;;;;;;8.02;2.08;;;;;;;26.70;100.00;100176.59;20872802;28;20520;-74
2023/07/31 00:21:14;;;;;;;4.43;1.88;;;;;;;26.62;100.00;100173.47;20893888;28;20170;-74
2023/07/31 00:31:38;;;;;;;3.95;2.00;;;;;;;26.60;100.00;100178.09;20881187;28;20049;-74
2023/07/31 00:42:01;;;;;;;7.47;2.35;;;;;;;26.45;100.00;100160.94;20875966;28;20053;-74
2023/07/31 00:52:25;;;;;;;5.38;2.00;;;;;;;26.39;100.00;100158.59;20884626;28;20049;-74
2023/07/31 01:02:49;;;;;;;6.85;2.35;;;;;;;26.34;100.00;100146.28;20879648;28;20504;-75
2023/07/31 01:13:13;;;;;;;5.43;2.13;;;;;;;26.28;100.00;100143.94;20905611;28;20417;-74
2023/07/31 01:23:52;;;;;;;7.97;2.45;;;;;;;26.21;100.00;100146.13;20907025;28;20077;-74
2023/07/31 01:34:02;;;;;;;4.78;2.08;;;;;;;26.14;100.00;100142.03;20908143;28;20041;-74
2023/07/31 01:44:25;;;;;;;9.07;2.10;;;;;;;26.19;100.00;100138.06;20921022;28;20053;-74
2023/07/31 01:54:49;;;;;;;7.55;2.53;;;;;;;26.32;100.00;100140.13;20888753;28;20684;-74
2023/07/31 02:05:12;;;;;;;6.68;2.10;;;;;;;26.36;100.00;100147.09;20899735;28;20061;-74
2023/07/31 02:15:36;;;;;;;4.60;2.03;;;;;;;26.32;100.00;100142.81;20885328;28;20052;-72
2023/07/31 02:25:59;;;;;;;5.50;2.30;;;;;;;26.29;100.00;100141.16;20897343;28;20053;-73
2023/07/31 02:36:23;;;;;;;5.35;2.13;;;;;;;26.28;100.00;100144.81;20898420;28;20061;-72
2023/07/31 02:46:45;;;;;;;5.18;2.35;;;;;;;26.24;100.00;100150.50;20881988;28;20379;-73
2023/07/31 02:57:10;;;;;;;7.82;2.50;;;;;;;26.20;100.00;100139.81;20896805;28;20037;-73
2023/07/31 03:07:33;;;;;;;5.95;2.30;;;;;;;26.22;100.00;100147.00;20882373;28;20049;-73
2023/07/31 03:17:57;;;;;;;6.78;2.13;;;;;;;26.19;100.00;100148.03;20878504;28;20056;-73
2023/07/31 03:28:19;;;;;;;5.78;2.40;;;;;;;26.19;100.00;100151.59;20911029;28;20134;-74
2023/07/31 03:38:43;;;;;;;4.93;2.15;;;;;;;26.26;100.00;100151.28;20898723;28;20044;-74
2023/07/31 03:49:06;;;;;;;5.18;2.20;;;;;;;26.48;100.00;100151.75;20900367;28;20486;-73
2023/07/31 03:59:30;;;;;;;5.03;2.10;;;;;;;26.79;100.00;100146.22;20894201;28;20056;-74
2023/07/31 04:09:52;;;;;;;4.55;1.80;;;;;;;27.19;100.00;100139.25;20863824;28;20132;-73
2023/07/31 04:20:16;;;;;;;3.78;1.83;;;;;;;27.66;100.00;100143.50;20875197;28;20044;-74
2023/07/31 04:30:19;;;;;;;2.50;1.73;;;;;;;28.11;98.27;100134.16;20902310;28;20452;-74
2023/07/31 04:40:43;;;;;;;5.38;1.60;;;;;;;28.57;92.40;100140.09;20921086;28;20075;-74
2023/07/31 04:51:06;;;;;;;3.53;1.38;;;;;;;29.15;89.01;100150.50;20892046;28;20041;-73
2023/07/31 05:01:30;;;;;;;3.63;1.92;;;;;;;29.68;80.37;100148.50;20918028;28;20053;-74
2023/07/31 05:11:52;;;;;;;4.10;1.85;;;;;;;30.20;74.36;100150.09;20891451;28;20557;-74
2023/07/31 05:22:16;;;;;;;2.97;1.40;;;;;;;30.52;57.75;100136.81;20888925;28;20561;-73
2023/07/31 05:32:39;;;;;;;5.18;1.50;;;;;;;31.13;52.86;100133.75;20893129;28;20049;-73
2023/07/31 05:43:03;;;;;;;4.13;1.50;;;;;;;31.77;47.84;100142.19;20917980;28;20397;-74
2023/07/31 05:53:25;;;;;;;4.10;1.50;;;;;;;32.57;46.82;100133.66;20893384;28;20045;-74
2023/07/31 06:03:50;;;;;;;2.90;1.40;;;;;;;33.40;44.28;100133.66;20883648;28;20053;-75
2023/07/31 06:14:13;;;;;;;2.43;1.37;;;;;;;33.93;41.98;100142.53;20846628;28;20049;-75
2023/07/31 06:24:37;;;;;;;18.77;2.05;;;;;;;34.48;40.96;100159.34;20851530;28;20071;-74
2023/07/31 06:34:59;;;;;;;1.70;1.25;;;;;;;34.71;39.89;100166.34;20928795;28;20044;-75
2023/07/31 06:45:23;;;;;;;2.70;1.40;;;;;;;34.91;37.53;100162.56;20965157;28;20056;-74
2023/07/31 06:55:48;;;;;;;2.42;1.35;;;;;;;34.85;37.69;100165.88;20896859;28;20551;-74
2023/07/31 07:06:12;;;;;;;4.57;1.40;;;;;;;34.79;37.26;100170.06;20900357;28;20195;-74
2023/07/31 07:16:34;;;;;;;2.05;1.40;;;;;;;35.64;37.06;100169.16;20865007;28;20045;-74
2023/07/31 07:26:58;;;;;;;2.53;1.55;;;;;;;36.21;36.70;100162.53;20899344;28;20056;-74
2023/07/31 07:37:21;;;;;;;3.30;1.70;;;;;;;36.12;36.71;100173.56;20894037;28;20385;-75
2023/07/31 07:47:26;;;;;;;3.60;1.52;;;;;;;36.20;35.96;100179.19;20916692;28;20079;-75
2023/07/31 07:57:50;;;;;;;4.28;1.35;;;;;;;36.24;36.05;100175.97;20865599;28;20045;-74
2023/07/31 08:08:16;;;;;;;3.88;1.70;;;;;;;36.72;35.49;100169.25;20904820;28;20520;-74
2023/07/31 08:18:40;;;;;;;3.90;1.10;;;;;;;36.53;34.48;100183.13;20904698;28;20397;-74
2023/07/31 08:29:05;;;;;;;5.53;1.57;;;;;;;36.83;34.67;100191.00;20902287;28;20041;-75
2023/07/31 08:39:27;;;;;;;3.85;1.40;;;;;;;37.04;34.90;100193.44;20881716;28;20045;-74
2023/07/31 08:49:36;;;;;;;6.25;1.55;;;;;;;37.29;35.25;100197.25;20905619;28;20489;-74
2023/07/31 08:59:58;;;;;;;3.60;1.70;;;;;;;37.44;35.69;100213.03;20885934;28;20091;-74
2023/07/31 09:10:17;;;;;;;2.78;1.40;;;;;;;37.32;35.95;100206.06;20885912;28;20539;-75
2023/07/31 09:20:39;;;;;;;4.40;1.40;;;;;;;37.65;36.14;100211.81;20895186;28;20049;-74
2023/07/31 09:31:04;;;;;;;3.75;1.60;;;;;;;37.95;35.93;100199.38;20886850;28;20068;-74
2023/07/31 09:41:27;;;;;;;6.28;1.38;;;;;;;38.24;35.66;100220.06;20910074;28;20052;-74
2023/07/31 09:51:32;;;;;;;;;;;;;;;38.03;34.73;100224.25;20904022;28;20671;-74
2023/07/31 10:01:57;;;;;;;4.97;1.40;;;;;;;37.94;34.47;100222.50;20905659;28;19921;-74
2023/07/31 10:12:27;;;;;;;5.50;1.60;;;;;;;37.89;35.26;100204.53;20894488;28;20422;-74
2023/07/31 10:22:52;;;;;;;6.57;1.60;;;;;;;37.90;35.49;100211.78;20891243;28;20052;-74
2023/07/31 10:33:17;;;;;;;4.47;1.52;;;;;;;37.83;36.54;100213.47;20894231;28;20126;-74
2023/07/31 10:43:27;;;;;;;2.75;1.30;;;;;;;37.78;33.80;100218.63;20929196;28;20056;-73
2023/07/31 10:53:48;;;;;;;4.38;1.58;;;;;;;37.50;33.85;100212.38;20926887;28;20048;-75
2023/07/31 11:04:12;;;;;;;4.32;1.50;;;;;;;37.30;34.17;100213.63;20911096;28;20591;-74
2023/07/31 11:14:36;;;;;;;3.78;1.60;;;;;;;37.34;33.26;100201.28;20911428;28;20056;-74
2023/07/31 11:24:59;;;;;;;5.40;1.47;;;;;;;37.27;33.91;100196.56;20902458;28;20045;-74
2023/07/31 11:35:25;;;;;;;4.30;1.40;;;;;;;37.60;34.59;100203.19;20884664;28;20301;-74
2023/07/31 11:45:49;;;;;;;3.38;1.40;;;;;;;37.66;33.73;100183.25;20905584;28;20599;-74
2023/07/31 11:56:15;;;;;;;3.33;1.30;;;;;;;37.20;34.30;100188.09;20912545;28;20052;-73
2023/07/31 12:06:38;;;;;;;4.45;1.63;;;;;;;37.11;34.46;100175.28;20889348;28;20055;-73
2023/07/31 12:17:07;;;;;;;3.53;1.30;;;;;;;37.24;32.70;100174.84;20894672;28;20052;-74
2023/07/31 12:27:12;;;;;;;6.85;1.33;;;;;;;37.17;33.26;100166.38;20885151;28;20048;-73
2023/07/31 12:37:36;;;;;;;3.03;1.10;;;;;;;37.07;33.07;100155.44;20887123;28;20090;-72
2023/07/31 12:47:59;;;;;;;3.95;1.20;;;;;;;37.24;32.59;100150.94;20880789;28;20562;-73
2023/07/31 12:58:24;;;;;;;3.47;1.27;;;;;;;36.98;33.63;100153.66;20904153;28;20045;-73
2023/07/31 13:08:47;;;;;;;5.68;1.55;;;;;;;36.64;34.24;100148.03;20913929;28;20144;-74
2023/07/31 13:19:11;;;;;;;3.63;1.05;;;;;;;36.55;35.54;100162.72;20909775;28;20547;-73
2023/07/31 13:29:34;;;;;;;2.92;1.35;;;;;;;35.94;35.88;100160.66;20971343;28;20509;-74
2023/07/31 13:39:58;;;;;;;3.70;1.35;;;;;;;36.10;36.39;100148.13;20895979;28;20824;-73
2023/07/31 13:50:22;;;;;;;4.30;1.50;;;;;;;35.83;35.93;100135.28;20920224;28;20067;-73
2023/07/31 14:00:46;;;;;;;4.55;1.20;;;;;;;35.77;35.85;100131.25;20881277;28;20053;-75
2023/07/31 14:10:57;;;;;;;3.30;1.40;;;;;;;35.96;34.84;100133.03;20895279;28;20456;-74
2023/07/31 14:21:21;;;;;;;4.88;1.65;;;;;;;35.95;34.46;100137.66;20899699;28;20049;-73
2023/07/31 14:31:28;;;;;;;6.00;1.40;;;;;;;35.95;35.25;100121.16;20890081;28;20045;-74
2023/07/31 14:41:52;;;;;;;5.43;1.52;;;;;;;36.03;37.25;100120.38;20879392;28;20053;-75
2023/07/31 14:52:16;;;;;;;6.10;1.92;;;;;;;35.79;38.52;100128.31;20882795;28;20140;-74
2023/07/31 15:02:41;;;;;;;8.90;1.50;;;;;;;35.60;38.59;100128.41;20889323;28;20055;-74
2023/07/31 15:13:04;;;;;;;4.60;1.70;;;;;;;34.85;39.27;100124.72;20888784;28;20049;-75
2023/07/31 15:23:28;;;;;;;6.07;1.30;;;;;;;33.95;40.04;100127.66;20898013;28;20099;-74
2023/07/31 15:33:50;;;;;;;6.68;1.60;;;;;;;33.02;42.48;100126.94;20932804;28;20523;-74
2023/07/31 15:44:15;;;;;;;5.30;1.55;;;;;;;32.51;44.70;100139.66;20962492;28;20512;-75
2023/07/31 15:54:38;;;;;;;6.28;1.80;;;;;;;31.97;51.96;100133.22;20979383;28;20052;-74
2023/07/31 16:05:02;;;;;;;6.35;1.65;;;;;;;31.67;49.66;100153.00;20979401;28;20432;-74
2023/07/31 16:15:25;;;;;;;6.28;1.80;;;;;;;31.50;49.07;100149.91;20965093;28;20059;-75
2023/07/31 16:25:49;;;;;;;5.57;1.77;;;;;;;31.20;54.50;100165.00;20990469;28;20455;-74
2023/07/31 16:35:51;;;;;;;6.13;1.60;;;;;;;31.01;54.25;100161.97;20967841;28;20130;-74
2023/07/31 16:46:16;;;;;;;8.07;4.65;;;;;;;30.73;54.39;100181.47;20945511;28;20098;-74
2023/07/31 16:56:39;;;;;;;6.95;1.90;;;;;;;30.55;55.49;100183.75;20952019;28;20045;-75
2023/07/31 17:07:04;;;;;;;5.93;1.73;;;;;;;30.32;62.56;100171.88;20938388;28;20119;-74
2023/07/31 17:17:28;;;;;;;6.00;1.70;;;;;;;30.14;69.37;100184.13;20943419;28;20051;-75
2023/07/31 17:27:52;;;;;;;5.75;1.85;;;;;;;29.88;77.01;100187.88;20933112;28;20052;-75
2023/07/31 17:38:14;;;;;;;5.05;2.00;;;;;;;29.67;81.50;100188.47;20940517;28;20060;-75
2023/07/31 17:48:38;;;;;;;6.28;1.98;;;;;;;29.50;85.89;100212.44;20934194;28;20049;-74
2023/07/31 17:59:01;;;;;;;10.65;4.00;;;;;;;29.31;90.16;100219.16;20937156;28;20049;-74
2023/07/31 18:09:25;;;;;;;11.18;3.35;;;;;;;29.21;94.04;100220.78;20889015;28;20098;-74
2023/07/31 18:19:48;;;;;;;7.47;2.47;;;;;;;29.08;96.55;100235.34;20907716;28;20469;-74
2023/07/31 18:30:13;;;;;;;8.82;1.73;;;;;;;28.95;98.76;100239.91;20899514;28;20057;-73
2023/07/31 18:40:36;;;;;;;9.88;2.63;;;;;;;28.74;95.82;100253.97;20868277;28;20056;-73
2023/07/31 18:51:01;;;;;;;12.18;3.03;;;;;;;28.61;92.51;100260.31;20903583;28;20056;-73
2023/07/31 19:01:24;;;;;;;6.75;2.10;;;;;;;28.39;87.72;100272.59;20867755;28;20044;-74
2023/07/31 19:11:35;;;;;;;6.05;1.83;;;;;;;28.37;83.38;100282.69;20892627;28;20048;-75
2023/07/31 19:21:58;;;;;;;6.10;1.98;;;;;;;28.20;82.08;100279.31;20883683;28;20052;-74
2023/07/31 19:32:22;;;;;;;6.55;1.88;;;;;;;28.12;79.22;100294.25;20855405;28;20053;-73
2023/07/31 19:42:45;;;;;;;5.72;2.08;;;;;;;28.01;78.73;100290.47;20885292;28;20056;-74
2023/07/31 19:53:10;;;;;;;6.05;1.90;;;;;;;27.94;78.74;100299.97;20872096;28;20074;-74
2023/07/31 20:03:32;;;;;;;9.27;2.17;;;;;;;27.87;78.36;100293.19;20884507;28;20110;-75
2023/07/31 20:13:56;;;;;;;7.43;2.28;;;;;;;27.81;78.64;100299.88;20871676;28;20049;-74
2023/07/31 20:24:19;;;;;;;8.05;2.85;;;;;;;27.69;79.59;100297.94;20925940;28;20052;-74
2023/07/31 20:34:43;;;;;;;8.68;2.28;;;;;;;27.58;81.33;100297.72;20927926;28;20102;-75
2023/07/31 20:45:07;;;;;;;7.60;2.10;;;;;;;27.47;83.69;100294.78;20921359;28;20056;-74
2023/07/31 20:55:33;;;;;;;7.18;2.05;;;;;;;27.31;85.19;100305.69;20940017;28;20072;-74
2023/07/31 21:05:57;;;;;;;7.80;2.42;;;;;;;27.15;87.47;100303.03;20884126;28;20044;-75
2023/07/31 21:16:21;;;;;;;5.57;2.00;;;;;;;27.00;89.64;100289.53;20922168;28;20760;-74
2023/07/31 21:26:44;;;;;;;8.05;2.28;;;;;;;26.88;90.79;100294.69;20990018;28;20056;-74
2023/07/31 21:37:10;;;;;;;7.25;1.90;;;;;;;26.77;90.32;100302.59;20905799;28;20049;-74
2023/07/31 21:47:33;;;;;;;7.18;2.17;;;;;;;26.81;88.28;100289.72;20916268;28;20527;-74
2023/07/31 21:57:57;;;;;;;5.40;1.98;;;;;;;26.75;86.99;100280.13;20921736;28;20048;-74
2023/07/31 22:08:20;;;;;;;7.25;1.52;;;;;;;26.68;85.39;100284.16;20891201;28;20053;-74
2023/07/31 22:18:44;;;;;;;7.03;2.20;;;;;;;26.70;84.42;100281.34;20931693;28;20040;-74
2023/07/31 22:29:07;;;;;;;8.13;2.15;;;;;;;26.62;88.08;100276.38;20915333;28;20052;-74
2023/07/31 22:39:11;;;;;;;4.90;2.03;;;;;;;26.50;94.77;100267.16;20914308;28;20045;-75
2023/07/31 22:49:33;;;;;;;8.60;2.00;;;;;;;26.46;100.00;100276.41;20880287;28;20061;-75
2023/07/31 22:59:58;;;;;;;8.55;2.00;;;;;;;26.40;100.00;100262.34;20919968;28;20048;-75
2023/07/31 23:10:21;;;;;;;9.30;2.35;;;;;;;26.37;100.00;100259.81;20961284;28;20049;-74
2023/07/31 23:20:50;;;;;;;9.93;2.35;;;;;;;26.40;100.00;100246.09;20902600;28;20059;-74
2023/07/31 23:31:12;;;;;;;9.90;2.10;;;;;;;26.36;100.00;100240.00;20907836;28;20392;-74
2023/07/31 23:41:36;;;;;;;5.93;2.30;;;;;;;26.41;100.00;100237.88;20890868;28;20139;-74
2023/07/31 23:51:59;;;;;;;9.13;2.33;;;;;;;26.33;100.00;100229.34;20901305;28;20143;-75
